createdAt,value
2022-11-19T00:00:46.709Z,5.60
2022-11-19T00:03:14.522Z,5.30
2022-11-19T00:05:45.106Z,5.30
2022-11-19T00:08:12.787Z,5.30
2022-11-19T00:10:39.635Z,5.60
2022-11-19T00:13:07.028Z,5.20
2022-11-19T00:15:34.951Z,5.20
2022-11-19T00:18:01.886Z,5.20
2022-11-19T00:20:28.560Z,5.10
2022-11-19T00:22:57.015Z,5.10
2022-11-19T00:25:24.275Z,5.10
2022-11-19T00:27:51.338Z,5.10
2022-11-19T00:30:40.859Z,5.00
2022-11-19T00:33:05.693Z,4.90
2022-11-19T00:35:32.196Z,4.90
2022-11-19T00:37:58.742Z,4.90
2022-11-19T00:40:25.264Z,4.90
2022-11-19T00:43:10.680Z,4.80
2022-11-19T00:45:37.208Z,5.00
2022-11-19T00:48:03.823Z,4.90
2022-11-19T00:50:30.370Z,4.90
2022-11-19T00:52:56.905Z,4.90
2022-11-19T00:55:23.420Z,4.90
2022-11-19T00:57:49.906Z,4.90
2022-11-19T01:00:16.668Z,4.90
2022-11-19T01:02:43.180Z,4.90
2022-11-19T01:05:09.761Z,4.80
2022-11-19T01:07:36.399Z,4.80
2022-11-19T01:10:03.121Z,4.80
2022-11-19T01:12:29.646Z,4.80
2022-11-19T01:14:56.188Z,4.80
2022-11-19T01:17:22.755Z,4.80
2022-11-19T01:19:49.334Z,4.80
2022-11-19T01:22:15.839Z,4.80
2022-11-19T01:24:42.496Z,4.80
2022-11-19T01:27:09.021Z,4.70
2022-11-19T01:29:35.579Z,4.60
2022-11-19T01:32:02.142Z,4.60
2022-11-19T01:34:28.944Z,4.50
2022-11-19T01:36:55.470Z,4.40
2022-11-19T01:39:22.189Z,4.40
2022-11-19T01:41:48.825Z,4.30
2022-11-19T01:44:34.126Z,4.30
2022-11-19T01:47:00.645Z,4.40
2022-11-19T01:49:27.262Z,4.20
2022-11-19T01:51:58.823Z,4.10
2022-11-19T01:54:28.199Z,4.10
2022-11-19T01:56:55.671Z,4.00
2022-11-19T01:59:23.211Z,3.90
2022-11-19T02:01:49.842Z,3.80
2022-11-19T02:04:17.673Z,3.70
2022-11-19T02:06:44.885Z,3.70
2022-11-19T02:09:11.419Z,3.70
2022-11-19T02:11:54.697Z,3.60
2022-11-19T02:14:40.193Z,3.60
2022-11-19T02:17:18.613Z,3.50
2022-11-19T02:19:45.264Z,3.40
2022-11-19T02:22:20.864Z,3.50
2022-11-19T02:24:54.892Z,3.50
2022-11-19T02:27:40.185Z,3.40
2022-11-19T02:30:10.745Z,3.30
2022-11-19T02:32:37.371Z,3.20
2022-11-19T02:35:08.528Z,3.20
2022-11-19T02:38:10.630Z,3.30
2022-11-19T02:40:47.105Z,3.30
2022-11-19T02:43:17.098Z,3.20
2022-11-19T02:45:47.468Z,3.20
2022-11-19T02:48:37.329Z,3.20
2022-11-19T02:51:04.672Z,3.20
2022-11-19T02:53:31.399Z,3.10
2022-11-19T02:56:12.965Z,3.30
2022-11-19T02:59:16.656Z,3.20
2022-11-19T03:02:04.419Z,3.20
2022-11-19T03:04:32.420Z,3.10
2022-11-19T03:07:14.051Z,3.20
2022-11-19T03:09:48.953Z,3.10
2022-11-19T03:12:21.593Z,3.10
2022-11-19T03:15:12.386Z,3.10
2022-11-19T03:17:46.860Z,3.10
2022-11-19T03:20:21.119Z,3.10
2022-11-19T03:22:53.173Z,3.20
2022-11-19T03:25:19.665Z,3.20
2022-11-19T03:27:48.319Z,3.10
2022-11-19T03:30:16.635Z,3.20
2022-11-19T03:32:46.391Z,3.20
2022-11-19T03:35:17.459Z,3.20
2022-11-19T03:37:45.482Z,3.20
2022-11-19T03:40:13.432Z,3.20
2022-11-19T03:42:41.107Z,3.20
2022-11-19T03:45:09.984Z,3.20
2022-11-19T03:47:38.443Z,3.20
2022-11-19T03:50:18.998Z,3.20
2022-11-19T03:52:45.620Z,3.20
2022-11-19T03:55:12.446Z,3.20
2022-11-19T03:57:39.267Z,3.20
2022-11-19T04:00:06.112Z,3.40
2022-11-19T04:02:32.660Z,3.20
2022-11-19T04:04:59.198Z,3.20
2022-11-19T04:07:25.789Z,3.20
2022-11-19T04:09:52.452Z,3.20
2022-11-19T04:12:19.993Z,3.20
2022-11-19T04:14:47.089Z,3.20
2022-11-19T04:17:13.985Z,3.20
2022-11-19T04:19:40.729Z,3.20
2022-11-19T04:22:07.527Z,3.20
2022-11-19T04:24:34.093Z,3.20
2022-11-19T04:27:00.721Z,3.10
2022-11-19T04:29:27.262Z,3.10
2022-11-19T04:31:53.817Z,3.10
2022-11-19T04:34:20.431Z,3.10
2022-11-19T04:36:46.978Z,3.10
2022-11-19T04:39:13.538Z,3.10
2022-11-19T04:41:40.379Z,3.10
2022-11-19T04:44:07.282Z,3.20
2022-11-19T04:46:34.107Z,3.10
2022-11-19T04:49:00.792Z,3.10
2022-11-19T04:51:27.341Z,3.10
2022-11-19T04:53:54.418Z,3.00
2022-11-19T04:56:21.077Z,3.00
2022-11-19T04:58:47.598Z,3.00
2022-11-19T05:01:14.236Z,3.00
2022-11-19T05:03:40.786Z,3.00
2022-11-19T05:06:08.003Z,3.00
2022-11-19T05:08:34.491Z,3.00
2022-11-19T05:11:01.083Z,3.00
2022-11-19T05:13:27.606Z,3.00
2022-11-19T05:15:54.159Z,3.00
2022-11-19T05:18:20.682Z,3.00
2022-11-19T05:20:47.688Z,3.10
2022-11-19T05:23:14.277Z,3.10
2022-11-19T05:25:40.856Z,3.10
2022-11-19T05:28:07.385Z,3.10
2022-11-19T05:30:33.969Z,3.10
2022-11-19T05:33:00.576Z,3.10
2022-11-19T05:35:27.252Z,3.10
2022-11-19T05:37:53.747Z,3.20
2022-11-19T05:40:20.270Z,3.20
2022-11-19T05:42:46.789Z,3.10
2022-11-19T05:45:13.331Z,3.10
2022-11-19T05:47:43.369Z,3.20
2022-11-19T05:50:12.483Z,3.20
2022-11-19T05:52:38.966Z,3.20
2022-11-19T05:55:05.901Z,3.20
2022-11-19T05:57:32.498Z,3.20
2022-11-19T05:59:59.028Z,3.20
2022-11-19T06:02:25.719Z,3.20
2022-11-19T06:04:52.328Z,3.10
2022-11-19T06:07:18.884Z,3.10
2022-11-19T06:09:45.635Z,3.10
2022-11-19T06:12:12.236Z,3.20
2022-11-19T06:14:38.800Z,3.20
2022-11-19T06:17:05.354Z,3.20
2022-11-19T06:19:31.914Z,3.30
2022-11-19T06:21:58.698Z,2.70
2022-11-19T06:24:25.210Z,3.20
2022-11-19T06:26:51.751Z,3.10
2022-11-19T06:29:18.916Z,3.20
2022-11-19T06:31:45.839Z,3.10
2022-11-19T06:34:12.451Z,3.30
2022-11-19T06:36:42.703Z,3.20
2022-11-19T06:39:10.377Z,3.20
2022-11-19T06:41:37.024Z,3.20
2022-11-19T06:44:03.721Z,3.10
2022-11-19T06:46:30.292Z,3.10
2022-11-19T06:48:57.067Z,3.20
2022-11-19T06:51:23.630Z,3.20
2022-11-19T06:53:50.185Z,3.20
2022-11-19T06:56:16.706Z,3.20
2022-11-19T06:58:43.323Z,3.20
2022-11-19T07:01:09.924Z,3.20
2022-11-19T07:03:36.662Z,3.20
2022-11-19T07:06:03.978Z,3.20
2022-11-19T07:08:34.345Z,3.20
2022-11-19T07:11:01.494Z,3.30
2022-11-19T07:13:48.033Z,3.30
2022-11-19T07:16:14.601Z,3.30
2022-11-19T07:18:41.144Z,3.20
2022-11-19T07:21:07.642Z,3.20
2022-11-19T07:23:34.161Z,3.20
2022-11-19T07:26:01.177Z,3.20
2022-11-19T07:28:27.733Z,3.20
2022-11-19T07:30:54.265Z,3.20
2022-11-19T07:33:20.840Z,3.10
2022-11-19T07:35:47.385Z,3.00
2022-11-19T07:38:14.046Z,3.00
2022-11-19T07:40:40.578Z,2.90
2022-11-19T07:43:07.093Z,2.90
2022-11-19T07:45:33.622Z,2.80
2022-11-19T07:48:00.148Z,2.80
2022-11-19T07:50:26.770Z,2.70
2022-11-19T07:52:53.568Z,2.70
2022-11-19T07:55:20.111Z,2.60
2022-11-19T07:57:46.618Z,2.50
2022-11-19T08:00:13.407Z,2.50
2022-11-19T08:02:39.917Z,2.40
2022-11-19T08:05:06.498Z,2.40
2022-11-19T08:07:33.110Z,2.40
2022-11-19T08:09:59.715Z,2.30
2022-11-19T08:12:26.510Z,2.30
2022-11-19T08:14:53.097Z,2.30
2022-11-19T08:17:38.325Z,2.30
2022-11-19T08:20:05.128Z,2.40
2022-11-19T08:22:31.690Z,2.20
2022-11-19T08:24:58.293Z,2.20
2022-11-19T08:27:25.291Z,2.20
2022-11-19T08:29:51.865Z,2.20
2022-11-19T08:32:18.376Z,2.20
2022-11-19T08:34:44.887Z,2.30
2022-11-19T08:37:13.506Z,2.20
2022-11-19T08:39:40.494Z,2.30
2022-11-19T08:42:27.056Z,2.30
2022-11-19T08:44:54.984Z,2.30
2022-11-19T08:47:21.625Z,2.30
2022-11-19T08:49:48.152Z,2.30
2022-11-19T08:52:14.666Z,2.40
2022-11-19T08:54:41.242Z,2.30
2022-11-19T08:57:07.792Z,2.30
2022-11-19T08:59:34.683Z,2.30
2022-11-19T09:02:01.231Z,2.40
2022-11-19T09:04:27.762Z,2.40
2022-11-19T09:06:54.354Z,2.40
2022-11-19T09:09:20.931Z,2.40
2022-11-19T09:11:47.489Z,2.40
2022-11-19T09:14:13.979Z,2.40
2022-11-19T09:16:40.533Z,2.30
2022-11-19T09:19:07.106Z,2.30
2022-11-19T09:21:33.665Z,2.40
2022-11-19T09:24:00.194Z,2.30
2022-11-19T09:26:26.825Z,2.50
2022-11-19T09:28:53.489Z,2.40
2022-11-19T09:31:20.441Z,2.30
2022-11-19T09:33:48.304Z,2.30
2022-11-19T09:36:15.498Z,2.40
2022-11-19T09:38:42.170Z,2.30
2022-11-19T09:41:11.932Z,2.20
2022-11-19T09:43:54.160Z,2.20
2022-11-19T09:46:26.713Z,2.30
2022-11-19T09:48:54.534Z,2.30
2022-11-19T09:51:23.772Z,2.20
2022-11-19T09:53:53.787Z,2.30
2022-11-19T09:56:26.081Z,2.40
2022-11-19T09:58:53.572Z,2.40
2022-11-19T10:01:20.179Z,2.50
2022-11-19T10:03:50.822Z,2.50
2022-11-19T10:06:36.242Z,2.50
2022-11-19T10:09:11.467Z,2.50
2022-11-19T10:11:43.940Z,2.60
2022-11-19T10:14:29.389Z,2.60
2022-11-19T10:17:15.940Z,2.60
2022-11-19T10:20:06.062Z,2.60
2022-11-19T10:22:39.834Z,2.70
2022-11-19T10:25:17.467Z,2.70
2022-11-19T10:27:51.495Z,2.70
2022-11-19T10:30:21.079Z,2.80
2022-11-19T10:33:06.466Z,2.80
2022-11-19T10:35:39.005Z,2.80
2022-11-19T10:38:11.009Z,2.90
2022-11-19T10:40:42.786Z,2.80
2022-11-19T10:43:48.706Z,2.80
2022-11-19T10:46:16.920Z,2.70
2022-11-19T10:48:44.540Z,2.80
2022-11-19T10:51:20.623Z,2.80
2022-11-19T10:53:47.441Z,3.00
2022-11-19T10:56:22.079Z,2.80
2022-11-19T10:58:51.571Z,2.80
2022-11-19T11:01:38.371Z,2.80
2022-11-19T11:04:13.110Z,2.80
2022-11-19T11:06:48.767Z,2.80
2022-11-19T11:09:27.936Z,2.80
2022-11-19T11:12:13.300Z,2.80
2022-11-19T11:14:52.731Z,2.80
2022-11-19T11:17:21.159Z,2.90
2022-11-19T11:20:01.717Z,2.80
2022-11-19T11:22:28.917Z,2.90
2022-11-19T11:24:56.107Z,2.90
2022-11-19T11:27:40.764Z,2.90
2022-11-19T11:30:07.635Z,2.90
2022-11-19T11:32:34.184Z,3.00
2022-11-19T11:35:06.412Z,2.90
2022-11-19T11:37:34.522Z,2.90
2022-11-19T11:40:01.285Z,2.90
2022-11-19T11:42:29.006Z,3.00
2022-11-19T11:45:00.051Z,3.10
2022-11-19T11:47:31.411Z,3.10
2022-11-19T11:50:06.984Z,3.10
2022-11-19T11:52:35.928Z,3.20
2022-11-19T11:55:05.073Z,3.20
2022-11-19T11:57:34.923Z,3.20
2022-11-19T12:00:04.812Z,3.20
2022-11-19T12:02:33.194Z,3.20
2022-11-19T12:05:01.366Z,3.10
2022-11-19T12:07:34.181Z,3.10
2022-11-19T12:10:19.386Z,3.00
2022-11-19T12:12:53.887Z,3.00
2022-11-19T12:15:45.312Z,3.00
2022-11-19T12:18:14.672Z,3.00
2022-11-19T12:21:00.228Z,2.80
2022-11-19T12:23:35.942Z,2.90
2022-11-19T12:26:12.652Z,2.90
2022-11-19T12:28:50.991Z,3.00
2022-11-19T12:31:32.641Z,3.00
2022-11-19T12:33:59.148Z,2.90
2022-11-19T12:36:31.622Z,3.00
2022-11-19T12:39:01.235Z,3.00
2022-11-19T12:41:43.892Z,3.00
2022-11-19T12:44:22.280Z,3.00
2022-11-19T12:46:57.686Z,3.10
2022-11-19T12:49:27.036Z,3.00
2022-11-19T12:51:53.577Z,3.00
2022-11-19T12:54:35.846Z,3.00
2022-11-19T12:57:12.473Z,2.90
2022-11-19T12:59:57.592Z,2.90
2022-11-19T13:02:29.873Z,2.90
2022-11-19T13:05:04.133Z,2.90
2022-11-19T13:07:33.417Z,2.90
2022-11-19T13:10:07.685Z,2.90
2022-11-19T13:12:36.569Z,2.80
2022-11-19T13:15:07.157Z,2.80
2022-11-19T13:17:37.809Z,2.70
2022-11-19T13:20:30.845Z,2.70
2022-11-19T13:22:59.432Z,2.80
2022-11-19T13:25:31.407Z,2.70
2022-11-19T13:28:00.974Z,2.60
2022-11-19T13:30:29.400Z,2.60
2022-11-19T13:33:05.157Z,2.50
2022-11-19T13:35:37.068Z,2.60
2022-11-19T13:38:03.650Z,2.60
2022-11-19T13:40:34.197Z,2.60
2022-11-19T13:43:35.195Z,2.60
2022-11-19T13:46:10.900Z,2.50
2022-11-19T13:48:40.443Z,2.50
2022-11-19T13:51:10.431Z,2.50
2022-11-19T13:53:41.893Z,2.50
2022-11-19T13:56:13.790Z,2.40
2022-11-19T13:58:45.652Z,2.40
2022-11-19T14:01:18.338Z,2.40
2022-11-19T14:04:03.490Z,2.40
2022-11-19T14:06:50.227Z,2.40
2022-11-19T14:09:42.960Z,2.40
2022-11-19T14:12:30.692Z,2.40
2022-11-19T14:15:31.118Z,2.40
2022-11-19T14:18:35.144Z,2.40
2022-11-19T14:21:39.144Z,2.40
2022-11-19T14:24:44.426Z,2.40
2022-11-19T14:27:17.195Z,2.40
2022-11-19T14:29:43.696Z,2.40
2022-11-19T14:32:10.205Z,2.40
2022-11-19T14:34:40.091Z,2.40
2022-11-19T14:37:15.825Z,2.60
2022-11-19T14:39:46.359Z,2.40
2022-11-19T14:42:17.763Z,2.40
2022-11-19T14:45:05.978Z,2.40
2022-11-19T14:47:43.333Z,2.40
2022-11-19T14:50:30.163Z,2.40
2022-11-19T14:52:58.564Z,2.40
2022-11-19T14:55:26.552Z,2.40
2022-11-19T14:57:58.091Z,2.40
2022-11-19T15:00:27.885Z,2.40
2022-11-19T15:02:55.379Z,2.40
2022-11-19T15:05:29.629Z,2.40
2022-11-19T15:08:14.923Z,2.70
2022-11-19T15:10:47.586Z,2.50
2022-11-19T15:13:18.808Z,2.40
2022-11-19T15:15:47.503Z,2.40
2022-11-19T15:18:20.077Z,2.40
2022-11-19T15:21:09.749Z,2.50
2022-11-19T15:23:51.447Z,2.40
2022-11-19T15:26:21.385Z,2.50
2022-11-19T15:29:06.906Z,2.50
2022-11-19T15:31:39.253Z,2.40
2022-11-19T15:34:21.346Z,2.40
2022-11-19T15:36:50.085Z,2.50
2022-11-19T15:39:16.632Z,2.40
2022-11-19T15:42:00.154Z,2.40
2022-11-19T15:44:46.978Z,2.40
2022-11-19T15:47:17.883Z,2.40
2022-11-19T15:49:45.211Z,2.30
2022-11-19T15:52:18.098Z,2.30
2022-11-19T15:54:44.865Z,2.30
2022-11-19T15:57:17.295Z,2.30
2022-11-19T15:59:49.662Z,2.30
2022-11-19T16:02:18.353Z,2.30
2022-11-19T16:04:45.006Z,2.30
2022-11-19T16:07:11.656Z,2.30
2022-11-19T16:09:38.335Z,2.40
2022-11-19T16:12:23.758Z,2.30
2022-11-19T16:15:10.080Z,2.40
2022-11-19T16:17:43.802Z,2.50
2022-11-19T16:20:10.836Z,2.50
2022-11-19T16:22:42.998Z,2.50
2022-11-19T16:25:13.576Z,2.40
2022-11-19T16:27:42.803Z,2.50
2022-11-19T16:30:22.770Z,2.40
2022-11-19T16:32:49.810Z,2.40
2022-11-19T16:35:26.664Z,2.50
2022-11-19T16:37:54.332Z,2.40
2022-11-19T16:40:21.436Z,2.40
2022-11-19T16:42:59.219Z,2.50
2022-11-19T16:45:30.526Z,2.50
2022-11-19T16:48:01.344Z,2.50
2022-11-19T16:50:31.964Z,2.50
2022-11-19T16:53:00.040Z,2.50
2022-11-19T16:55:26.546Z,2.50
2022-11-19T16:57:58.019Z,2.50
2022-11-19T17:00:28.202Z,2.10
2022-11-19T17:02:54.962Z,2.40
2022-11-19T17:05:23.179Z,2.50
2022-11-19T17:07:50.539Z,2.40
2022-11-19T17:10:23.061Z,2.30
2022-11-19T17:12:52.774Z,2.30
2022-11-19T17:15:32.287Z,2.30
2022-11-19T17:18:17.113Z,2.20
2022-11-19T17:20:43.622Z,2.30
2022-11-19T17:23:20.533Z,2.30
2022-11-19T17:25:48.375Z,2.20
2022-11-19T17:28:17.830Z,2.30
2022-11-19T17:30:44.774Z,2.30
2022-11-19T17:33:14.834Z,2.30
2022-11-19T17:35:42.840Z,2.40
2022-11-19T17:38:09.377Z,2.30
2022-11-19T17:40:35.907Z,2.30
2022-11-19T17:43:20.896Z,2.30
2022-11-19T17:45:47.425Z,2.30
2022-11-19T17:48:20.520Z,2.30
2022-11-19T17:50:47.204Z,2.30
2022-11-19T17:53:13.742Z,2.30
2022-11-19T17:55:41.660Z,2.30
2022-11-19T17:58:08.935Z,2.40
2022-11-19T18:00:35.523Z,2.40
2022-11-19T18:03:03.368Z,2.40
2022-11-19T18:05:32.367Z,2.40
2022-11-19T18:07:58.943Z,2.40
2022-11-19T18:10:25.642Z,2.40
2022-11-19T18:12:52.187Z,2.40
2022-11-19T18:15:19.690Z,2.40
2022-11-19T18:17:46.425Z,2.30
2022-11-19T18:23:34.781Z,2.30
2022-11-19T18:26:01.517Z,2.20
2022-11-19T18:28:28.100Z,2.20
2022-11-19T18:30:54.800Z,2.20
2022-11-19T18:33:21.429Z,2.30
2022-11-19T18:35:48.527Z,2.30
2022-11-19T18:38:15.125Z,2.40
2022-11-19T18:40:42.208Z,2.30
2022-11-19T18:43:27.962Z,2.40
2022-11-19T18:45:54.459Z,2.30
2022-11-19T18:48:21.000Z,2.40
2022-11-19T18:50:47.547Z,2.40
2022-11-19T18:53:14.115Z,2.40
2022-11-19T18:55:40.616Z,2.30
2022-11-19T18:58:07.171Z,2.30
2022-11-19T19:00:33.839Z,2.30
2022-11-19T19:03:00.764Z,2.30
2022-11-19T19:05:27.323Z,2.30
2022-11-19T19:07:53.952Z,2.40
2022-11-19T19:10:20.585Z,2.30
2022-11-19T19:12:47.131Z,2.30
2022-11-19T19:15:13.691Z,2.30
2022-11-19T19:17:40.202Z,2.30
2022-11-19T19:20:07.054Z,2.30
2022-11-19T19:22:33.602Z,2.30
2022-11-19T19:25:00.110Z,2.20
2022-11-19T19:27:26.699Z,2.20
2022-11-19T19:29:53.532Z,2.20
2022-11-19T19:32:20.246Z,2.20
2022-11-19T19:34:46.991Z,2.20
2022-11-19T19:37:13.678Z,2.20
2022-11-19T19:39:40.401Z,2.20
2022-11-19T19:42:06.972Z,2.20
2022-11-19T19:44:33.518Z,2.20
2022-11-19T19:47:00.368Z,2.20
2022-11-19T19:49:26.899Z,2.20
2022-11-19T19:51:53.445Z,2.20
2022-11-19T19:54:20.083Z,2.20
2022-11-19T19:56:46.685Z,2.20
2022-11-19T19:59:13.800Z,2.10
2022-11-19T20:01:43.128Z,2.10
2022-11-19T20:04:10.415Z,2.20
2022-11-19T20:06:40.833Z,2.20
2022-11-19T20:09:09.298Z,2.20
2022-11-19T20:11:36.766Z,2.20
2022-11-19T20:14:03.963Z,2.20
2022-11-19T20:16:31.232Z,2.20
2022-11-19T20:18:58.459Z,2.20
2022-11-19T20:21:26.004Z,2.30
2022-11-19T20:23:53.446Z,2.20
2022-11-19T20:26:20.848Z,2.20
2022-11-19T20:28:47.871Z,2.20
2022-11-19T20:31:18.886Z,2.20
2022-11-19T20:33:46.306Z,2.20
2022-11-19T20:36:13.973Z,2.20
2022-11-19T20:38:41.296Z,2.20
2022-11-19T20:41:28.853Z,2.20
2022-11-19T20:44:14.555Z,2.40
2022-11-19T20:46:41.258Z,2.20
2022-11-19T20:49:10.499Z,2.30
2022-11-19T20:51:38.276Z,2.20
2022-11-19T20:54:05.047Z,2.20
2022-11-19T20:56:31.600Z,2.20
2022-11-19T20:58:58.153Z,2.20
2022-11-19T21:01:28.318Z,2.30
2022-11-19T21:03:57.979Z,2.10
2022-11-19T21:06:24.817Z,2.20
2022-11-19T21:08:51.574Z,2.10
2022-11-19T21:11:18.097Z,2.10
2022-11-19T21:13:44.630Z,2.10
2022-11-19T21:16:16.311Z,2.20
2022-11-19T21:18:42.948Z,2.10
2022-11-19T21:21:10.454Z,2.10
2022-11-19T21:23:37.428Z,2.10
2022-11-19T21:26:16.246Z,2.10
2022-11-19T21:28:46.154Z,2.20
2022-11-19T21:31:13.306Z,2.10
2022-11-19T21:33:40.408Z,2.10
2022-11-19T21:36:07.684Z,2.20
2022-11-19T21:38:34.573Z,2.20
2022-11-19T21:41:01.180Z,2.20
2022-11-19T21:43:28.108Z,2.20
2022-11-19T21:45:54.783Z,2.20
2022-11-19T21:48:22.060Z,2.20
2022-11-19T21:50:48.777Z,2.20
2022-11-19T21:53:15.564Z,2.20
2022-11-19T21:55:42.592Z,2.20
2022-11-19T21:58:09.581Z,2.20
2022-11-19T22:00:36.270Z,2.20
2022-11-19T22:03:02.914Z,2.20
2022-11-19T22:05:29.430Z,2.30
2022-11-19T22:07:57.801Z,2.20
2022-11-19T22:10:24.361Z,2.10
2022-11-19T22:12:50.905Z,2.10
2022-11-19T22:15:17.550Z,2.20
2022-11-19T22:17:44.582Z,2.20
2022-11-19T22:20:11.374Z,2.20
2022-11-19T22:22:38.008Z,2.10
2022-11-19T22:25:04.797Z,2.10
2022-11-19T22:27:31.347Z,2.20
2022-11-19T22:30:01.768Z,2.20
2022-11-19T22:32:31.188Z,2.00
2022-11-19T22:34:57.680Z,2.20
2022-11-19T22:37:24.279Z,2.20
2022-11-19T22:39:50.782Z,2.20
2022-11-19T22:42:17.309Z,2.20
2022-11-19T22:44:43.847Z,2.20
2022-11-19T22:47:10.371Z,2.30
2022-11-19T22:49:36.857Z,2.30
2022-11-19T22:52:03.826Z,2.30
2022-11-19T22:54:30.353Z,2.30
2022-11-19T22:56:56.930Z,2.30
2022-11-19T22:59:23.554Z,2.30
2022-11-19T23:01:50.291Z,2.30
2022-11-19T23:04:16.837Z,2.30
2022-11-19T23:06:43.596Z,2.40
2022-11-19T23:09:10.144Z,2.30
2022-11-19T23:11:55.191Z,2.30
2022-11-19T23:14:21.725Z,2.30
2022-11-19T23:16:48.315Z,2.30
2022-11-19T23:19:16.367Z,2.30
2022-11-19T23:21:42.861Z,2.30
2022-11-19T23:24:09.662Z,2.30
2022-11-19T23:26:36.332Z,2.30
2022-11-19T23:29:02.885Z,2.30
2022-11-19T23:31:30.557Z,2.30
2022-11-19T23:33:59.230Z,2.30
2022-11-19T23:36:30.540Z,2.30
2022-11-19T23:38:57.578Z,2.30
2022-11-19T23:41:24.380Z,2.40
2022-11-19T23:43:52.853Z,2.50
2022-11-19T23:46:20.610Z,2.40
2022-11-19T23:48:48.191Z,2.40
2022-11-19T23:51:16.099Z,2.40
2022-11-19T23:53:43.128Z,2.40
2022-11-19T23:56:10.160Z,2.60
2022-11-19T23:58:37.072Z,2.50
